Furrs, Mississippi
Current Conditions -  °F | °C
As of 8:53 PM on Tuesday 21 Oct 2014 (Local Time) from KTUP Reporting Station
Clear Clear  
Wind Chill: 58°   Ceiling: Unl
Heat Index: 58°   Visibility: 10mi
Dew Point: 50°   Wind: 0mph
Humidity: 75%   Direction: NA
Pressure: 30.07"   Gusts: NA
Location:  34.1762°N, 88.9612°W
Report Text: KTUP 220153Z AUTO 00000KT 10SM CLR 14/10 A3007 RMK AO2 SLP180 T01440100 PWINO
Loading
Personal Weather Stations






























Interactive Weather Map New forecast layout! Learn more

10-Day Weather Forecast

Advertisements
Track Severe Weather on mobile